Terminal Aerodrome Forecast
Issued by NWS

Current Version | Previous Version | Graphics & Text | Print | Product List | Glossary On
Versions: 1 2 3 4 5 6 7 8 9 10 11 12 13 14 15 16 17 18 19 20 21
000
FTUS41 KPBZ 072300
TAFHLG
TAF
KHLG 072320Z 0800/0824 22010G20KT P6SM VCSH BKN060
     FM080300 22008KT P6SM SCT060
     FM080900 20005KT 4SM BR BKN015
     FM081400 21010G22KT P6SM BKN040
     FM081600 21012G26KT P6SM -SHRA VCTS BKN040CB=

USA.gov is the U.S. government's official web portal to all federal, state and local government web resources and services.